Log in

NYSE:PAGPenske Automotive Group Institutional Ownership

$34.09
-0.71 (-2.04 %)
(As of 05/22/2020 04:00 PM ET)
Add
Compare
Today's Range
$33.16
Now: $34.09
$34.80
50-Day Range
$23.03
MA: $31.80
$37.23
52-Week Range
$19.99
Now: $34.09
$53.81
Volume398,589 shs
Average Volume365,720 shs
Market Capitalization$2.74 billion
P/E Ratio7.21
Dividend Yield4.93%
Beta1.67

Institutional Ownership

Institutional Ownership Changes (13F Filings) for Penske Automotive Group (NYSE:PAG)

Institutional Ownership Percentage: 40.12%

Institutional Buying and Selling by Quarter


Penske Automotive Group (NYSE PAG) Institutional Buying and Selling

Reporting DateHedge FundShares HeldMarket Value% of PortfolioQuarterly Change in SharesOwnership in Company
5/18/2020Advisor Group Holdings Inc.7,084$0.20M0.0%N/A0.009%
5/15/2020AQR Capital Management LLC258,437$7.24M0.0%-4.9%0.321%
5/15/2020Engineers Gate Manager LP74,604$2.09M0.2%N/A0.093%
5/15/2020Squarepoint Ops LLC16,531$0.46M0.0%-90.4%0.021%
5/15/2020Invesco Ltd.50,471$1.41M0.0%-37.2%0.063%
5/15/2020Morgan Stanley767,488$21.49M0.0%-27.6%0.954%
5/15/2020Balyasny Asset Management LLC45,191$1.27M0.0%+41.8%0.056%
5/15/2020Aristotle Capital Management LLC44,084$1.23M0.0%-3.0%0.055%
5/15/2020London Co. of Virginia618,044$17.31M0.2%-28.5%0.768%
5/15/2020Moon Capital Management LP19,700$0.55M0.5%+4.8%0.024%
5/14/2020Gabelli Funds LLC85,000$2.38M0.0%-3.4%0.106%
5/14/2020Wells Fargo & Company MN67,408$1.89M0.0%-20.0%0.084%
5/14/2020Gamco Investors INC. ET AL508,117$14.23M0.2%+0.1%0.632%
5/14/2020Geode Capital Management LLC377,769$10.58M0.0%+1.7%0.470%
5/14/2020Fiduciary Management Inc. WI1,344,546$37.65M0.3%0.0%1.671%
5/14/2020Deutsche Bank AG83,632$2.34M0.0%-8.2%0.104%
5/14/2020Dean Capital Management10,850$0.30M0.5%-51.3%0.013%
5/14/2020Alliancebernstein L.P.13,800$0.39M0.0%-19.3%0.017%
5/14/2020Nuveen Asset Management LLC112,480$3.15M0.0%-49.5%0.140%
5/13/2020Canada Pension Plan Investment Board23,400$0.66M0.0%-60.1%0.029%
5/13/2020Redwood Investment Management LLC16,819$0.47M0.3%-14.7%0.021%
5/13/2020AlphaCrest Capital Management LLC12,250$0.34M0.0%-65.1%0.015%
5/13/2020Parametric Portfolio Associates LLC61,280$1.72M0.0%-10.5%0.076%
5/13/2020Treasurer of the State of North Carolina13,940$0.39M0.0%+71.0%0.017%
5/13/2020BNP Paribas Arbitrage SA1,570$44K0.0%-31.6%0.002%
5/13/2020Horizon Kinetics Asset Management LLC14,402$0.40M0.0%+10.1%0.018%
5/13/2020Franklin Resources Inc.12,401$0.35M0.0%+15.8%0.015%
5/13/2020US Bancorp DE1,197$34K0.0%+41.3%0.001%
5/12/2020Sontag Advisory LLC32,664$0.92M0.0%N/A0.041%
5/12/2020Citigroup Inc.20,279$0.57M0.0%-23.4%0.025%
5/12/2020Sowell Financial Services LLC3,550$99K0.0%-14.7%0.004%
5/12/2020Principal Financial Group Inc.20,435$0.57M0.0%-38.6%0.025%
5/12/2020Victory Capital Management Inc.2,201,446$61.64M0.1%+6.5%2.736%
5/12/2020Ceredex Value Advisors LLC931,130$26.07M0.4%+10.0%1.157%
5/12/2020GAM Holding AG171,093$4.79M0.3%+0.4%0.213%
5/12/2020JPMorgan Chase & Co.13,950$0.39M0.0%+14.1%0.017%
5/11/2020Ensign Peak Advisors Inc6,600$0.19M0.0%N/A0.008%
5/11/2020State Street Corp647,040$18.12M0.0%+1.6%0.804%
5/11/2020WINTON GROUP Ltd54,369$1.52M0.0%-46.3%0.068%
5/8/2020Northwestern Mutual Wealth Management Co.15,324$0.43M0.0%+17.2%0.019%
5/8/2020Blue Chip Partners Inc.50,103$1.40M0.3%+4.5%0.062%
5/8/2020Aigen Investment Management LP8,490$0.24M0.0%N/A0.010%
5/6/2020Zurcher Kantonalbank Zurich Cantonalbank 3,076$86K0.0%+42.3%0.004%
5/6/2020First Trust Advisors LP128,552$3.60M0.0%-23.7%0.159%
5/6/2020Russell Investments Group Ltd.80,306$2.25M0.0%-15.1%0.099%
5/6/2020Bank of New York Mellon Corp411,366$11.52M0.0%-8.0%0.509%
5/6/2020Rhumbline Advisers69,351$1.94M0.0%+17.1%0.086%
5/6/2020New York State Common Retirement Fund96,200$2.69M0.0%+11.1%0.119%
5/6/2020Bruni J V & Co. Co.285,867$8M2.1%-0.6%0.353%
5/5/2020Stone Ridge Asset Management LLC7,422$0.21M0.0%+36.9%0.009%
5/5/2020Arizona State Retirement System8,564$0.24M0.0%N/A0.011%
5/5/2020Alaska Permanent Fund Corp20,450$0.57M0.0%N/A0.025%
5/5/2020Investors Research Corp16,975$0.48M0.3%+236.1%0.021%
5/5/2020State Board of Administration of Florida Retirement System31,083$0.87M0.0%+3.7%0.038%
5/5/2020Aperio Group LLC41,186$1.15M0.0%-13.0%0.051%
5/4/2020Victory Capital Management Inc.2,201,446$61.64M0.1%+6.5%2.722%
5/2/2020SG Americas Securities LLC15,736$0.44M0.0%-4.8%0.019%
5/1/2020BlackRock Inc.1,490,235$41.73M0.0%-22.4%1.842%
5/1/2020Prudential PLC429,700$12.03M0.1%-4.3%0.531%
5/1/2020UBS Group AG47,765$1.34M0.0%-52.2%0.059%
4/30/2020Cambiar Investors LLC49,436$1.38M0.1%-69.7%0.061%
4/29/2020Yorktown Management & Research Co Inc14,700$0.41M0.4%-12.5%0.018%
4/24/2020Trust Co. of Vermont64,022$1.79M0.2%+2.4%0.079%
4/24/2020Fenimore Asset Management Inc.517,409$14.49M0.6%+23.5%0.640%
4/23/2020Strs Ohio30,537$0.86M0.0%-55.1%0.038%
4/23/2020Envestnet Asset Management Inc.27,910$0.78M0.0%+30.5%0.035%
4/23/2020Deroy & Devereaux Private Investment Counsel Inc.331,142$9.27M1.2%N/A0.409%
4/23/2020Denali Advisors LLC59,700$1.67M0.4%+41.8%0.074%
4/21/2020Raymond James & Associates9,041$0.25M0.0%+25.7%0.011%
4/21/2020Raymond James Financial Services Advisors Inc.15,644$0.44M0.0%-10.6%0.019%
4/21/2020First Hawaiian Bank21,210$0.59M0.0%+7.1%0.026%
4/20/2020Edmp Inc.49,282$1.38M1.2%+1.2%0.061%
3/11/2020Franklin Resources Inc.10,708$0.54M0.0%+18.3%0.013%
3/5/2020Nuveen Asset Management LLC222,689$11.18M0.0%+79.7%0.274%
3/4/2020Green Square Asset Management LLC154,268$7.75M1.7%+3.2%0.190%
3/3/2020Norges Bank251,285$12.62M0.0%N/A0.309%
2/27/2020Total Clarity Wealth Management Inc.2,500$0.13M0.1%N/A0.003%
2/20/2020Geode Capital Management LLC371,406$18.65M0.0%+7.4%0.458%
2/18/2020Brinker Capital Inc.36,196$1.82M0.1%-1.5%0.045%
2/18/2020Algert Global LLC34,913$1.75M0.5%N/A0.043%
2/18/2020Alliancebernstein L.P.17,100$0.86M0.0%+9.6%0.021%
2/18/2020Colony Group LLC13,813$0.69M0.0%-5.9%0.017%
2/18/2020Janus Henderson Group PLC13,355$0.67M0.0%+13.2%0.016%
2/18/2020Gargoyle Investment Advisor L.L.C.13,859$0.70M1.1%-47.5%0.017%
2/18/2020Man Group plc76,853$3.86M0.0%+172.7%0.095%
2/17/2020Zebra Capital Management LLC4,440$0.22M0.2%-15.2%0.005%
2/15/2020Logan Capital Management Inc.21,084$1.06M0.1%-3.0%0.026%
2/14/2020Point72 Asset Management L.P.772$39K0.0%-77.6%0.001%
2/14/2020Advisors Asset Management Inc.1,707$86K0.0%N/A0.002%
2/14/2020Cubist Systematic Strategies LLC39,137$1.97M0.0%+32.7%0.048%
2/14/2020AQR Capital Management LLC271,839$13.65M0.0%+21.0%0.335%
2/14/2020Jane Street Group LLC101,890$5.12M0.0%+3.3%0.126%
2/14/2020First Republic Investment Management Inc.4,094$0.21M0.0%-89.4%0.005%
2/14/2020Bank of America Corp DE826,856$41.53M0.0%-9.9%1.020%
2/14/2020UBS Asset Management Americas Inc.55,904$2.81M0.0%+14.6%0.069%
2/14/2020Marshall Wace LLP9,496$0.48M0.0%N/A0.012%
2/14/2020Bank of New York Mellon Corp447,104$22.45M0.0%-14.9%0.552%
2/14/2020Goldman Sachs Group Inc.272,916$13.71M0.0%-17.4%0.337%
2/14/2020Guggenheim Capital LLC43,471$2.18M0.0%-10.9%0.054%
2/14/2020UBS Group AG99,988$5.02M0.0%-2.8%0.123%
(Data available from 1/1/2016 forward)
This page was last updated on 5/24/2020 by MarketBeat.com Staff

Enter your email address below to receive a concise daily summary of analysts' upgrades, downgrades and new coverage with MarketBeat.com's FREE daily email newsletter.